Time;durP1;ratioP1;P1;durP2;ratioP2;P2;SDS_P1;SDS_P2;PMS_P1;PMS_P2;Temp;Humidity;BMP_temperature;BMP_pressure;BME280_temperature;BME280_humidity;BME280_pressure;Samples;Min_cycle;Max_cycle;Signal;HPM_P1;HPM_P2
2023/07/30 00:01:31;;;;;;;1999.90;999.90;;;17.80;99.90;;;;;;5033445;28;20174;-73
2023/07/30 00:03:56;;;;;;;1999.90;999.90;;;17.80;99.90;;;;;;5033527;28;20782;-73
2023/07/30 00:06:22;;;;;;;1999.90;999.90;;;17.80;99.90;;;;;;5033500;28;20609;-73
2023/07/30 00:08:47;;;;;;;1999.90;999.90;;;17.80;99.90;;;;;;5033526;28;20200;-73
2023/07/30 00:11:13;;;;;;;1999.90;999.90;;;17.90;99.90;;;;;;5033346;28;20182;-73
2023/07/30 00:13:39;;;;;;;1999.90;999.90;;;17.80;99.90;;;;;;5033420;28;20530;-73
2023/07/30 00:16:04;;;;;;;1999.90;999.90;;;17.80;99.90;;;;;;5033325;28;20210;-73
2023/07/30 00:18:30;;;;;;;1999.90;999.90;;;17.80;99.90;;;;;;5033246;28;20255;-73
2023/07/30 00:20:55;;;;;;;1999.90;999.90;;;17.70;99.90;;;;;;5033004;28;20178;-73
2023/07/30 00:23:21;;;;;;;1999.90;999.90;;;17.60;99.90;;;;;;5033209;28;20268;-74
2023/07/30 00:25:46;;;;;;;1999.90;999.90;;;17.60;99.90;;;;;;5033030;28;20236;-73
2023/07/30 00:28:12;;;;;;;1999.90;999.90;;;17.60;99.90;;;;;;5032491;28;20650;-73
2023/07/30 00:30:37;;;;;;;1999.90;999.90;;;17.60;99.90;;;;;;5032865;28;20172;-73
2023/07/30 00:33:03;;;;;;;1999.90;999.90;;;17.50;99.90;;;;;;5032803;28;20175;-73
2023/07/30 00:35:29;;;;;;;1999.90;999.90;;;17.60;99.90;;;;;;5032887;28;20286;-73
2023/07/30 00:37:54;;;;;;;1999.90;999.90;;;17.50;99.90;;;;;;5033143;28;20181;-73
2023/07/30 00:40:20;;;;;;;1999.90;999.90;;;17.50;99.90;;;;;;5032897;28;20258;-73
2023/07/30 00:42:45;;;;;;;1999.90;999.90;;;17.50;99.90;;;;;;5032594;28;20217;-73
2023/07/30 00:45:11;;;;;;;1999.90;999.90;;;17.50;99.90;;;;;;5032737;28;20217;-73
2023/07/30 00:47:40;;;;;;;1999.90;999.90;;;17.40;99.90;;;;;;5032766;28;20183;-73
2023/07/30 00:50:07;;;;;;;1999.90;999.90;;;17.40;99.90;;;;;;5032817;28;20635;-73
2023/07/30 00:52:33;;;;;;;1999.90;999.90;;;17.40;99.90;;;;;;5032475;28;20403;-73
2023/07/30 00:55:01;;;;;;;1999.90;999.90;;;17.40;99.90;;;;;;5032748;28;20451;-73
2023/07/30 00:57:27;;;;;;;1999.90;999.90;;;17.40;99.90;;;;;;5032621;28;20415;-73
2023/07/30 00:59:53;;;;;;;1999.90;999.90;;;17.40;99.90;;;;;;5032571;28;20422;-73
2023/07/30 01:02:19;;;;;;;1999.90;999.90;;;17.50;99.90;;;;;;5032223;28;20672;-72
2023/07/30 01:04:45;;;;;;;1999.90;999.90;;;17.60;99.90;;;;;;5032250;28;20451;-73
2023/07/30 01:07:11;;;;;;;1999.90;999.90;;;17.60;99.90;;;;;;5032684;28;20774;-73
2023/07/30 01:09:37;;;;;;;1999.90;999.90;;;17.70;99.90;;;;;;5032498;28;20439;-73
2023/07/30 01:12:04;;;;;;;1999.90;999.90;;;17.80;99.90;;;;;;5032150;28;20447;-73
2023/07/30 01:14:30;;;;;;;1999.90;999.90;;;17.70;99.90;;;;;;5032451;28;20205;-73
2023/07/30 01:16:56;;;;;;;1999.90;999.90;;;17.70;99.90;;;;;;5032089;28;20435;-73
2023/07/30 01:19:22;;;;;;;1999.90;999.90;;;17.80;99.90;;;;;;5032293;28;20751;-73
2023/07/30 01:21:47;;;;;;;1999.90;999.90;;;17.90;99.90;;;;;;5032002;28;20217;-73
2023/07/30 01:24:13;;;;;;;1999.90;999.90;;;18.00;99.90;;;;;;5032187;28;20206;-72
2023/07/30 01:26:52;;;;;;;1999.90;999.90;;;18.00;99.90;;;;;;5032088;28;20187;-73
2023/07/30 01:29:24;;;;;;;1999.90;999.90;;;18.00;99.90;;;;;;5032214;28;20643;-73
2023/07/30 01:32:04;;;;;;;1999.90;999.90;;;18.00;99.90;;;;;;5031713;28;20415;-73
2023/07/30 01:34:34;;;;;;;1999.90;999.90;;;18.00;99.90;;;;;;5032016;28;20414;-73
2023/07/30 01:37:00;;;;;;;1999.90;999.90;;;18.00;99.90;;;;;;5031942;28;20934;-72
2023/07/30 01:39:27;;;;;;;1999.90;999.90;;;18.00;99.90;;;;;;5031837;28;20415;-73
2023/07/30 01:41:54;;;;;;;1999.90;999.90;;;18.10;99.90;;;;;;5031700;28;20779;-72
2023/07/30 01:44:20;;;;;;;1999.90;999.90;;;18.10;99.90;;;;;;5031904;28;20876;-73
2023/07/30 01:46:45;;;;;;;1999.90;999.90;;;18.00;99.90;;;;;;5031852;28;20419;-73
2023/07/30 01:49:11;;;;;;;1999.90;999.90;;;18.00;99.90;;;;;;5031943;28;20503;-72
2023/07/30 01:51:37;;;;;;;1999.90;999.90;;;18.00;99.90;;;;;;5031619;28;20184;-72
2023/07/30 01:54:02;;;;;;;1999.90;999.90;;;17.90;99.90;;;;;;5031875;28;20168;-73
2023/07/30 01:56:28;;;;;;;1999.90;999.90;;;17.90;99.90;;;;;;5031688;28;20671;-73
2023/07/30 01:58:54;;;;;;;1999.90;999.90;;;17.90;99.90;;;;;;5031804;28;20182;-73
2023/07/30 02:01:20;;;;;;;1999.90;999.90;;;17.90;99.90;;;;;;5031694;28;20543;-73
2023/07/30 02:03:45;;;;;;;1999.90;999.90;;;17.90;99.90;;;;;;5031812;28;20581;-73
2023/07/30 02:06:11;;;;;;;1999.90;999.90;;;17.90;99.90;;;;;;5031722;28;20701;-72
2023/07/30 02:08:37;;;;;;;1999.90;999.90;;;17.90;99.90;;;;;;5031779;28;20207;-73
2023/07/30 02:11:03;;;;;;;1999.90;999.90;;;18.00;99.90;;;;;;5031431;28;20835;-73
2023/07/30 02:13:28;;;;;;;1999.90;999.90;;;17.90;99.90;;;;;;5031646;28;20197;-73
2023/07/30 02:15:54;;;;;;;1999.90;999.90;;;18.00;99.90;;;;;;5031551;28;20286;-73
2023/07/30 02:18:20;;;;;;;1999.90;999.90;;;17.90;99.90;;;;;;5031731;28;20179;-73
2023/07/30 02:20:45;;;;;;;1999.90;999.90;;;17.90;99.90;;;;;;5031723;28;20174;-73
2023/07/30 02:23:11;;;;;;;1999.90;999.90;;;17.90;99.90;;;;;;5031447;28;20639;-73
2023/07/30 02:25:38;;;;;;;1999.90;999.90;;;17.90;99.90;;;;;;5031483;28;20690;-73
2023/07/30 02:28:04;;;;;;;1999.90;999.90;;;17.90;99.90;;;;;;5031472;28;20685;-73
2023/07/30 02:30:29;;;;;;;1999.90;999.90;;;17.90;99.90;;;;;;5031448;28;20519;-73
2023/07/30 02:32:55;;;;;;;1999.90;999.90;;;17.80;99.90;;;;;;5031254;28;20630;-74
2023/07/30 02:35:20;;;;;;;1999.90;999.90;;;17.80;99.90;;;;;;5031421;28;20196;-73
2023/07/30 02:37:46;;;;;;;1999.90;999.90;;;17.80;99.90;;;;;;5031501;28;20172;-73
2023/07/30 02:40:11;;;;;;;1999.90;999.90;;;17.80;99.90;;;;;;5031496;28;20181;-73
2023/07/30 02:42:37;;;;;;;1999.90;999.90;;;17.80;99.90;;;;;;5031158;28;20185;-73
2023/07/30 02:45:03;;;;;;;1999.90;999.90;;;17.80;99.90;;;;;;5031335;28;20211;-73
2023/07/30 02:47:29;;;;;;;1999.90;999.90;;;17.80;99.90;;;;;;5031523;28;20177;-74
2023/07/30 02:49:55;;;;;;;1999.90;999.90;;;17.80;99.90;;;;;;5031395;28;20419;-73
2023/07/30 02:52:20;;;;;;;1999.90;999.90;;;17.80;99.90;;;;;;5032606;28;20179;-73
2023/07/30 02:54:46;;;;;;;1999.90;999.90;;;17.60;99.90;;;;;;5034898;28;20185;-73
2023/07/30 02:57:12;;;;;;;1999.90;999.90;;;17.70;99.90;;;;;;5034885;28;20967;-74
2023/07/30 02:59:38;;;;;;;1999.90;999.90;;;17.60;99.90;;;;;;5034985;28;20290;-73
2023/07/30 03:02:07;;;;;;;1999.90;999.90;;;17.50;99.90;;;;;;5034523;28;20519;-73
2023/07/30 03:04:33;;;;;;;1999.90;999.90;;;17.50;99.90;;;;;;5034775;28;20199;-73
2023/07/30 03:06:58;;;;;;;1999.90;999.90;;;17.50;99.90;;;;;;5034690;28;20774;-73
2023/07/30 03:09:24;;;;;;;1999.90;999.90;;;17.50;99.90;;;;;;5034705;28;20330;-73
2023/07/30 03:11:50;;;;;;;1999.90;999.90;;;17.40;99.90;;;;;;5034322;28;20175;-72
2023/07/30 03:14:16;;;;;;;1999.90;999.90;;;17.40;99.90;;;;;;5034532;28;20193;-73
2023/07/30 03:16:41;;;;;;;1999.90;999.90;;;17.40;99.90;;;;;;5034424;28;20434;-73
2023/07/30 03:19:07;;;;;;;1999.90;999.90;;;17.40;99.90;;;;;;5034501;28;20172;-72
2023/07/30 03:21:33;;;;;;;1999.90;999.90;;;17.40;99.90;;;;;;5034157;28;20176;-73
2023/07/30 03:23:58;;;;;;;1999.90;999.90;;;17.40;99.90;;;;;;5034391;28;20176;-73
2023/07/30 03:26:24;;;;;;;1999.90;999.90;;;17.40;99.90;;;;;;5034388;28;20192;-73
2023/07/30 03:28:50;;;;;;;1999.90;999.90;;;17.40;99.90;;;;;;5034413;28;20181;-73
2023/07/30 03:31:15;;;;;;;1999.90;999.90;;;17.30;99.90;;;;;;5034008;28;20175;-73
2023/07/30 03:33:45;;;;;;;1999.90;999.90;;;17.30;99.90;;;;;;5034946;28;20175;-73
2023/07/30 03:36:13;;;;;;;1999.90;999.90;;;17.30;99.90;;;;;;5034245;28;20193;-73
2023/07/30 03:38:38;;;;;;;1999.90;999.90;;;17.20;99.90;;;;;;5034087;28;20453;-73
2023/07/30 03:41:06;;;;;;;1999.90;999.90;;;17.20;99.90;;;;;;5033796;28;20430;-73
2023/07/30 03:43:32;;;;;;;1999.90;999.90;;;17.10;99.90;;;;;;5034033;28;20594;-73
2023/07/30 03:45:57;;;;;;;1999.90;999.90;;;17.00;99.90;;;;;;5033844;28;20468;-73
2023/07/30 03:48:23;;;;;;;1999.90;999.90;;;17.00;99.90;;;;;;5034089;28;20406;-73
2023/07/30 03:50:48;;;;;;;1999.90;999.90;;;17.00;99.90;;;;;;5033871;28;20178;-73
2023/07/30 03:53:14;;;;;;;1999.90;999.90;;;17.00;99.90;;;;;;5033611;28;20718;-73
2023/07/30 03:55:40;;;;;;;1999.90;999.90;;;17.00;99.90;;;;;;5033741;28;20218;-73
2023/07/30 03:58:06;;;;;;;1999.90;999.90;;;17.00;99.90;;;;;;5033820;28;20189;-73
2023/07/30 04:00:32;;;;;;;1999.90;999.90;;;17.00;99.90;;;;;;5033726;28;20900;-74
2023/07/30 04:02:58;;;;;;;1999.90;999.90;;;17.00;99.90;;;;;;5033463;28;20226;-73
2023/07/30 04:05:23;;;;;;;1999.90;999.90;;;17.00;99.90;;;;;;5033497;28;20987;-73
2023/07/30 04:07:49;;;;;;;1999.90;999.90;;;17.00;99.90;;;;;;5033597;28;20182;-73
2023/07/30 04:10:15;;;;;;;1999.90;999.90;;;17.10;99.90;;;;;;5033472;28;20174;-73
2023/07/30 04:12:40;;;;;;;1999.90;999.90;;;17.00;99.90;;;;;;5033261;28;20164;-73
2023/07/30 04:15:06;;;;;;;1999.90;999.90;;;17.10;99.90;;;;;;5033475;28;20666;-73
2023/07/30 04:17:32;;;;;;;1999.90;999.90;;;17.10;99.90;;;;;;5033368;28;20190;-73
2023/07/30 04:19:57;;;;;;;1999.90;999.90;;;17.10;99.90;;;;;;5033320;28;20415;-73
2023/07/30 04:22:23;;;;;;;1999.90;999.90;;;17.20;99.90;;;;;;5033022;28;20174;-73
2023/07/30 04:24:49;;;;;;;1999.90;999.90;;;17.20;99.90;;;;;;5033121;28;20209;-73
2023/07/30 04:27:14;;;;;;;1999.90;999.90;;;17.10;99.90;;;;;;5033168;28;20203;-73
2023/07/30 04:29:40;;;;;;;1999.90;999.90;;;17.10;99.90;;;;;;5033228;28;20167;-73
2023/07/30 04:32:06;;;;;;;1999.90;999.90;;;17.10;99.90;;;;;;5032915;28;20642;-73
2023/07/30 04:34:31;;;;;;;1999.90;999.90;;;17.10;99.90;;;;;;5033102;28;20173;-73
2023/07/30 04:36:57;;;;;;;1999.90;999.90;;;17.00;99.90;;;;;;5032881;28;20833;-73
2023/07/30 04:39:23;;;;;;;1999.90;999.90;;;17.00;99.90;;;;;;5033032;28;20222;-73
2023/07/30 04:41:48;;;;;;;1999.90;999.90;;;17.10;99.90;;;;;;5032596;28;20168;-73
2023/07/30 04:44:15;;;;;;;1999.90;999.90;;;17.10;99.90;;;;;;5032707;28;20202;-73
2023/07/30 04:46:40;;;;;;;1999.90;999.90;;;17.10;99.90;;;;;;5032832;28;20185;-73
2023/07/30 04:49:06;;;;;;;1999.90;999.90;;;17.10;99.90;;;;;;5032817;28;20409;-73
2023/07/30 04:51:32;;;;;;;1999.90;999.90;;;17.10;99.90;;;;;;5032530;28;20166;-73
2023/07/30 04:53:57;;;;;;;1999.90;999.90;;;17.10;99.90;;;;;;5032675;28;20170;-73
2023/07/30 04:56:25;;;;;;;1999.90;999.90;;;17.10;99.90;;;;;;5032724;28;20207;-73
2023/07/30 04:58:50;;;;;;;1999.90;999.90;;;17.00;99.90;;;;;;5032787;28;20260;-73
2023/07/30 05:01:16;;;;;;;1999.90;999.90;;;17.00;99.90;;;;;;5032299;28;20997;-73
2023/07/30 05:03:41;;;;;;;1999.90;999.90;;;17.00;99.90;;;;;;5032623;28;20187;-73
2023/07/30 05:06:07;;;;;;;1999.90;999.90;;;16.90;99.90;;;;;;5032337;28;20223;-75
2023/07/30 05:08:33;;;;;;;1999.90;999.90;;;16.80;99.90;;;;;;5032396;28;20805;-74
2023/07/30 05:10:59;;;;;;;1999.90;999.90;;;16.80;99.90;;;;;;5032333;28;20404;-74
2023/07/30 05:13:24;;;;;;;1999.90;999.90;;;16.70;99.90;;;;;;5032394;28;20172;-73
2023/07/30 05:15:50;;;;;;;1999.90;999.90;;;16.70;99.90;;;;;;5031979;28;20664;-73
2023/07/30 05:18:15;;;;;;;1999.90;999.90;;;16.70;99.90;;;;;;5030998;28;20182;-74
2023/07/30 05:20:41;;;;;;;1999.90;999.90;;;16.80;99.90;;;;;;5032256;28;20180;-74
2023/07/30 05:23:06;;;;;;;1999.90;999.90;;;16.80;99.90;;;;;;5031982;28;20171;-74
2023/07/30 05:25:32;;;;;;;1999.90;999.90;;;16.80;99.90;;;;;;5032039;28;20676;-73
2023/07/30 05:27:58;;;;;;;1999.90;999.90;;;16.90;99.90;;;;;;5032180;28;20551;-73
2023/07/30 05:30:24;;;;;;;1999.90;999.90;;;16.80;99.90;;;;;;5032248;28;20561;-74
2023/07/30 05:32:49;;;;;;;1999.90;999.90;;;16.90;99.90;;;;;;5031863;28;20173;-74
2023/07/30 05:35:15;;;;;;;1999.90;999.90;;;16.90;99.90;;;;;;5031945;28;20191;-74
2023/07/30 05:37:41;;;;;;;1999.90;999.90;;;16.90;99.90;;;;;;5032159;28;20182;-73
2023/07/30 05:40:07;;;;;;;1999.90;999.90;;;16.90;99.90;;;;;;5031950;28;20213;-73
2023/07/30 05:42:32;;;;;;;1999.90;999.90;;;17.00;99.90;;;;;;5031608;28;20186;-73
2023/07/30 05:44:58;;;;;;;1999.90;999.90;;;16.90;99.90;;;;;;5031704;28;20466;-74
2023/07/30 05:47:24;;;;;;;1999.90;999.90;;;17.00;99.90;;;;;;5031978;28;20687;-74
2023/07/30 05:49:49;;;;;;;1999.90;999.90;;;17.10;99.90;;;;;;5031945;28;20169;-73
2023/07/30 05:52:15;;;;;;;1999.90;999.90;;;17.10;99.90;;;;;;5031619;28;20167;-74
2023/07/30 05:54:41;;;;;;;1999.90;999.90;;;;;;;;;;5032104;28;20642;-74
2023/07/30 05:57:06;;;;;;;1999.90;999.90;;;17.30;99.90;;;;;;5032341;28;20180;-76
2023/07/30 05:59:32;;;;;;;1999.90;999.90;;;17.30;99.90;;;;;;5032028;28;20411;-75
2023/07/30 06:02:02;;;;;;;1999.90;999.90;;;17.30;99.90;;;;;;5031870;28;20538;-75
2023/07/30 06:04:28;;;;;;;1999.90;999.90;;;17.30;99.90;;;;;;5032096;28;20200;-75
2023/07/30 06:06:54;;;;;;;1999.90;999.90;;;17.30;99.90;;;;;;5032133;28;20430;-75
2023/07/30 06:09:19;;;;;;;1999.90;999.90;;;17.30;99.90;;;;;;5032076;28;20176;-74
2023/07/30 06:11:45;;;;;;;1999.90;999.90;;;17.20;99.90;;;;;;5031660;28;20293;-75
2023/07/30 06:14:10;;;;;;;1999.90;999.90;;;17.30;99.90;;;;;;5031998;28;20176;-75
2023/07/30 06:16:36;;;;;;;1999.90;999.90;;;17.20;99.90;;;;;;5032086;28;20659;-75
2023/07/30 06:19:01;;;;;;;1999.90;999.90;;;17.20;99.90;;;;;;5032078;28;20253;-75
2023/07/30 06:21:27;;;;;;;1999.90;999.90;;;17.30;99.90;;;;;;5031742;28;20171;-75
2023/07/30 06:23:53;;;;;;;1999.90;999.90;;;17.30;99.90;;;;;;5031851;28;20165;-75
2023/07/30 06:26:18;;;;;;;1999.90;999.90;;;17.20;99.90;;;;;;5031713;28;20711;-75
2023/07/30 06:28:44;;;;;;;1999.90;999.90;;;17.30;99.90;;;;;;5035688;28;20405;-75
2023/07/30 06:31:10;;;;;;;1999.90;999.90;;;17.30;99.90;;;;;;5035294;28;20166;-73
2023/07/30 06:33:37;;;;;;;1999.90;999.90;;;17.30;99.90;;;;;;5035519;28;20738;-73
2023/07/30 06:36:03;;;;;;;1999.90;999.90;;;17.20;99.90;;;;;;5035352;28;20450;-75
2023/07/30 06:38:29;;;;;;;1999.90;999.90;;;17.20;99.90;;;;;;5035577;28;20459;-75
2023/07/30 06:40:57;;;;;;;1999.90;999.90;;;17.20;99.90;;;;;;5035293;28;20436;-75
2023/07/30 06:43:23;;;;;;;1999.90;999.90;;;17.30;99.90;;;;;;5035509;28;20640;-75
2023/07/30 06:45:48;;;;;;;1999.90;999.90;;;17.30;99.90;;;;;;5035070;28;20552;-75
2023/07/30 06:48:15;;;;;;;1999.90;999.90;;;17.30;99.90;;;;;;5035254;28;20168;-75
2023/07/30 06:50:41;;;;;;;1999.90;999.90;;;17.30;99.90;;;;;;5035536;28;20180;-75
2023/07/30 06:53:07;;;;;;;1999.90;999.90;;;17.40;99.90;;;;;;5034943;28;20487;-74
2023/07/30 06:55:33;;;;;;;1999.90;999.90;;;17.40;99.90;;;;;;5034946;28;20523;-75
2023/07/30 06:57:59;;;;;;;1999.90;999.90;;;17.50;99.90;;;;;;5035126;28;20171;-75
2023/07/30 07:00:24;;;;;;;1999.90;999.90;;;17.50;99.90;;;;;;5035178;28;20502;-75
2023/07/30 07:02:50;;;;;;;1999.90;999.90;;;17.50;99.90;;;;;;5034676;28;20210;-74
2023/07/30 07:05:16;;;;;;;1999.90;999.90;;;17.50;99.90;;;;;;5034728;28;20200;-75
2023/07/30 07:07:42;;;;;;;1999.90;999.90;;;17.60;99.90;;;;;;5034865;28;20924;-74
2023/07/30 07:10:08;;;;;;;1999.90;999.90;;;17.60;99.90;;;;;;5034944;28;20403;-75
2023/07/30 07:12:34;;;;;;;1999.90;999.90;;;17.70;99.90;;;;;;5034551;28;20692;-75
2023/07/30 07:15:01;;;;;;;1999.90;999.90;;;17.90;99.90;;;;;;5034685;28;20496;-74
2023/07/30 07:17:27;;;;;;;1999.90;999.90;;;17.80;99.90;;;;;;5034685;28;20200;-75
2023/07/30 07:19:52;;;;;;;1999.90;999.90;;;17.80;99.90;;;;;;5034909;28;20465;-75
2023/07/30 07:22:18;;;;;;;1999.90;999.90;;;17.90;99.90;;;;;;5034590;28;20465;-76
2023/07/30 07:24:47;;;;;;;1999.90;999.90;;;17.90;99.90;;;;;;5034570;28;20185;-75
2023/07/30 07:27:12;;;;;;;1999.90;999.90;;;18.00;99.90;;;;;;5034788;28;20171;-75
2023/07/30 07:29:38;;;;;;;1999.90;999.90;;;18.10;99.90;;;;;;5034789;28;20402;-75
2023/07/30 07:32:04;;;;;;;1999.90;999.90;;;18.10;99.90;;;;;;5034236;28;20175;-74
2023/07/30 07:34:30;;;;;;;1999.90;999.90;;;18.00;99.90;;;;;;5034523;28;20176;-74
2023/07/30 07:36:55;;;;;;;1999.90;999.90;;;18.00;99.90;;;;;;5034347;28;20556;-73
2023/07/30 07:39:21;;;;;;;1999.90;999.90;;;17.90;99.90;;;;;;5033819;28;20181;-73
2023/07/30 07:41:46;;;;;;;1999.90;999.90;;;17.90;99.90;;;;;;5032701;28;20172;-73
2023/07/30 07:44:12;;;;;;;1999.90;999.90;;;17.70;99.90;;;;;;5030994;28;20665;-73
2023/07/30 07:46:37;;;;;;;1999.90;999.90;;;17.50;99.90;;;;;;5033790;28;20253;-73
2023/07/30 07:49:03;;;;;;;1999.90;999.90;;;17.50;99.90;;;;;;5034088;28;20698;-73
2023/07/30 07:51:29;;;;;;;1999.90;999.90;;;17.50;99.90;;;;;;5033672;28;20233;-73
2023/07/30 07:53:54;;;;;;;1999.90;999.90;;;17.60;99.90;;;;;;5033862;28;20171;-73
2023/07/30 07:56:20;;;;;;;1999.90;999.90;;;17.60;99.90;;;;;;5033750;28;20191;-74
2023/07/30 07:58:45;;;;;;;1999.90;999.90;;;17.60;99.90;;;;;;5029795;28;20745;-73
2023/07/30 08:01:11;;;;;;;1999.90;999.90;;;17.60;99.90;;;;;;5033235;28;20263;-74
2023/07/30 08:03:37;;;;;;;1999.90;999.90;;;17.70;99.90;;;;;;5033770;28;20173;-74
2023/07/30 08:06:02;;;;;;;1999.90;999.90;;;17.70;99.90;;;;;;5033502;28;20201;-73
2023/07/30 08:08:28;;;;;;;1999.90;999.90;;;17.60;99.90;;;;;;5033628;28;20587;-73
2023/07/30 08:10:54;;;;;;;1999.90;999.90;;;17.60;99.90;;;;;;5033372;28;20172;-73
2023/07/30 08:13:20;;;;;;;1999.90;999.90;;;17.60;99.90;;;;;;5033507;28;20162;-73
2023/07/30 08:15:46;;;;;;;1999.90;999.90;;;17.60;99.90;;;;;;5033396;28;20852;-73
2023/07/30 08:18:11;;;;;;;1999.90;999.90;;;17.70;99.90;;;;;;5033472;28;20441;-73
2023/07/30 08:20:37;;;;;;;1999.90;999.90;;;17.70;99.90;;;;;;5033314;28;20272;-73
2023/07/30 08:23:03;;;;;;;1999.90;999.90;;;17.70;99.90;;;;;;5032944;28;20184;-73
2023/07/30 08:25:28;;;;;;;1999.90;999.90;;;17.90;99.90;;;;;;5033011;28;20461;-73
2023/07/30 08:27:54;;;;;;;1999.90;999.90;;;18.10;99.90;;;;;;5033381;28;20168;-73
2023/07/30 08:30:20;;;;;;;1999.90;999.90;;;18.30;99.90;;;;;;5033120;28;20173;-73
2023/07/30 08:32:45;;;;;;;1999.90;999.90;;;18.40;99.90;;;;;;5032916;28;20640;-73
2023/07/30 08:35:11;;;;;;;1999.90;999.90;;;18.60;99.90;;;;;;5033001;28;20269;-73
2023/07/30 08:37:37;;;;;;;1999.90;999.90;;;18.80;99.90;;;;;;5033060;28;20175;-73
2023/07/30 08:40:03;;;;;;;1999.90;999.90;;;18.90;99.90;;;;;;5032990;28;20178;-73
2023/07/30 08:42:29;;;;;;;1999.90;999.90;;;19.00;99.90;;;;;;5032680;28;20414;-73
2023/07/30 08:44:55;;;;;;;1999.90;999.90;;;19.30;99.90;;;;;;5025919;28;20472;-73
2023/07/30 08:47:20;;;;;;;1999.90;999.90;;;19.10;99.90;;;;;;5032929;28;20183;-73
2023/07/30 08:49:49;;;;;;;1999.90;999.90;;;19.10;99.90;;;;;;5029062;28;20219;-74
2023/07/30 08:52:17;;;;;;;1999.90;999.90;;;19.30;99.90;;;;;;5030754;28;20176;-72
2023/07/30 08:54:46;;;;;;;1999.90;999.90;;;18.10;99.90;;;;;;5030524;28;20453;-73
2023/07/30 08:57:12;;;;;;;1999.90;999.90;;;19.00;99.90;;;;;;5031663;28;20412;-73
2023/07/30 08:59:48;;;;;;;1999.90;999.90;;;19.10;99.90;;;;;;5032267;28;20519;-73
2023/07/30 09:02:26;;;;;;;1999.90;999.90;;;19.10;99.90;;;;;;5030653;28;20431;-73
2023/07/30 09:04:56;;;;;;;1999.90;999.90;;;18.90;99.90;;;;;;5031932;28;20461;-72
2023/07/30 09:07:24;;;;;;;1999.90;999.90;;;19.00;99.90;;;;;;5032207;28;20915;-73
2023/07/30 09:09:50;;;;;;;1999.90;999.90;;;19.00;99.90;;;;;;5030059;28;20786;-73
2023/07/30 09:12:16;;;;;;;1999.90;999.90;;;19.00;99.90;;;;;;5031843;28;20409;-73
2023/07/30 09:14:45;;;;;;;1999.90;999.90;;;18.80;99.90;;;;;;5031191;28;20412;-73
2023/07/30 09:17:19;;;;;;;1999.90;999.90;;;18.90;99.90;;;;;;5031487;28;20176;-73
2023/07/30 09:19:47;;;;;;;1999.90;999.90;;;18.90;99.90;;;;;;5032084;28;20446;-73
2023/07/30 09:22:12;;;;;;;1999.90;999.90;;;18.00;99.90;;;;;;5030332;28;20416;-73
2023/07/30 09:24:44;;;;;;;1999.90;999.90;;;19.10;99.90;;;;;;5031131;28;21037;-73
2023/07/30 09:27:11;;;;;;;1999.90;999.90;;;19.40;99.90;;;;;;5026811;28;20214;-74
2023/07/30 09:29:36;;;;;;;1999.90;999.90;;;19.70;99.90;;;;;;5027716;28;20426;-73
2023/07/30 09:32:02;;;;;;;1999.90;999.90;;;19.90;99.90;;;;;;5025689;28;20413;-73
2023/07/30 09:34:30;;;;;;;1999.90;999.90;;;19.70;99.90;;;;;;5024888;28;20191;-72
2023/07/30 09:36:55;;;;;;;1999.90;999.90;;;20.10;99.90;;;;;;5018077;28;20447;-72
2023/07/30 09:39:22;;;;;;;1999.90;999.90;;;20.40;99.90;;;;;;5025360;28;20468;-72
2023/07/30 09:41:52;;;;;;;1999.90;999.90;;;20.70;99.90;;;;;;5020349;28;20250;-72
2023/07/30 09:44:21;;;;;;;1999.90;999.90;;;20.70;99.90;;;;;;5026938;28;20446;-72
2023/07/30 09:46:48;;;;;;;1999.90;999.90;;;20.40;99.90;;;;;;5021071;28;20466;-71
2023/07/30 09:49:15;;;;;;;1999.90;999.90;;;20.30;99.90;;;;;;5023773;28;20432;-74
2023/07/30 09:51:41;;;;;;;1999.90;999.90;;;20.30;99.90;;;;;;5026495;28;20429;-72
2023/07/30 09:54:08;;;;;;;1999.90;999.90;;;20.10;99.90;;;;;;5027302;28;20822;-75
2023/07/30 09:56:36;;;;;;;1999.90;999.90;;;20.10;99.90;;;;;;5026679;28;20441;-75
2023/07/30 09:59:01;;;;;;;1999.90;999.90;;;20.10;99.90;;;;;;5027433;28;20473;-76
2023/07/30 10:01:29;;;;;;;1999.90;999.90;;;20.30;99.90;;;;;;5029988;28;20413;-76
2023/07/30 10:03:57;;;;;;;1999.90;999.90;;;20.50;99.90;;;;;;5030325;28;20187;-73
2023/07/30 10:06:27;;;;;;;1999.90;999.90;;;20.50;99.90;;;;;;5030862;28;20536;-75
2023/07/30 10:08:54;;;;;;;1999.90;999.90;;;20.60;99.90;;;;;;5028471;28;20411;-74
2023/07/30 10:11:20;;;;;;;1999.90;999.90;;;20.60;99.90;;;;;;5033144;28;20914;-76
2023/07/30 10:13:46;;;;;;;1999.90;999.90;;;20.70;99.90;;;;;;5034018;28;20417;-76
2023/07/30 10:16:12;;;;;;;1999.90;999.90;;;20.90;99.90;;;;;;5033942;28;20489;-75
2023/07/30 10:18:39;;;;;;;1999.90;999.90;;;21.00;99.90;;;;;;5033433;28;20811;-75
2023/07/30 10:21:08;;;;;;;1999.90;999.90;;;21.00;99.90;;;;;;5033327;28;20764;-76
2023/07/30 10:23:34;;;;;;;1999.90;999.90;;;20.80;99.90;;;;;;5034034;28;20403;-76
2023/07/30 10:26:09;;;;;;;1999.90;999.90;;;20.70;99.90;;;;;;5033446;28;20803;-76
2023/07/30 10:28:44;;;;;;;1999.90;999.90;;;20.60;99.90;;;;;;5033962;28;20178;-74
2023/07/30 10:31:13;;;;;;;1999.90;999.90;;;20.70;99.90;;;;;;5032897;28;20497;-73
2023/07/30 10:33:53;;;;;;;1999.90;999.90;;;20.80;99.90;;;;;;5033809;28;20407;-75
2023/07/30 10:36:32;;;;;;;1999.90;999.90;;;21.00;99.90;;;;;;5033673;28;20436;-75
2023/07/30 10:39:15;;;;;;;1999.90;999.90;;;21.10;99.90;;;;;;5033437;28;21003;-76
2023/07/30 10:41:43;;;;;;;1999.90;999.90;;;21.30;99.90;;;;;;5032956;28;20421;-75
2023/07/30 10:44:26;;;;;;;1999.90;999.90;;;21.70;99.90;;;;;;5022889;28;20519;-76
2023/07/30 10:46:53;;;;;;;1999.90;999.90;;;21.90;99.90;;;;;;5029654;28;20529;-73
2023/07/30 10:49:19;;;;;;;1999.90;999.90;;;21.80;99.90;;;;;;5033545;28;20416;-76
2023/07/30 10:51:45;;;;;;;1999.90;999.90;;;21.70;99.90;;;;;;5032825;28;20396;-76
2023/07/30 10:54:11;;;;;;;1999.90;999.90;;;21.50;99.90;;;;;;5032791;28;20178;-75
2023/07/30 10:56:37;;;;;;;1999.90;999.90;;;21.40;99.90;;;;;;5033318;28;20430;-76
2023/07/30 10:59:05;;;;;;;1999.90;999.90;;;21.50;99.90;;;;;;5030315;28;20558;-75
2023/07/30 11:01:31;;;;;;;1999.90;999.90;;;21.70;99.90;;;;;;5032173;28;20401;-76
2023/07/30 11:03:57;;;;;;;1999.90;999.90;;;22.00;99.90;;;;;;5033250;28;20478;-76
2023/07/30 11:06:26;;;;;;;1999.90;999.90;;;22.40;99.90;;;;;;5033032;28;20212;-76
2023/07/30 11:08:52;;;;;;;1999.90;999.90;;;22.40;99.90;;;;;;5032526;28;20736;-75
2023/07/30 11:11:18;;;;;;;1999.90;999.90;;;22.10;99.90;;;;;;5032421;28;20447;-75
2023/07/30 11:13:46;;;;;;;1999.90;999.90;;;21.80;99.90;;;;;;5032470;28;20409;-76
2023/07/30 11:16:13;;;;;;;1999.90;999.90;;;21.80;99.90;;;;;;5032651;28;20194;-76
2023/07/30 11:18:40;;;;;;;1999.90;999.90;;;21.80;99.90;;;;;;5033243;28;20973;-76
2023/07/30 11:21:14;;;;;;;1999.90;999.90;;;21.80;99.90;;;;;;5032047;28;20756;-74
2023/07/30 11:23:44;;;;;;;1999.90;999.90;;;21.80;99.90;;;;;;5032397;28;20458;-74
2023/07/30 11:26:17;;;;;;;1999.90;999.90;;;21.80;99.90;;;;;;5032832;28;20456;-75
2023/07/30 11:28:43;;;;;;;1999.90;999.90;;;21.70;99.90;;;;;;5033129;28;20825;-75
2023/07/30 11:31:15;;;;;;;1999.90;999.90;;;21.60;99.90;;;;;;5031656;28;20444;-75
2023/07/30 11:33:43;;;;;;;1999.90;999.90;;;21.60;99.90;;;;;;5032669;28;20405;-75
2023/07/30 11:36:11;;;;;;;1999.90;999.90;;;21.60;99.90;;;;;;5032742;28;20429;-76
2023/07/30 11:38:39;;;;;;;1999.90;999.90;;;21.50;99.90;;;;;;5032400;28;20407;-76
2023/07/30 11:41:05;;;;;;;1999.90;999.90;;;21.40;99.90;;;;;;5032006;28;20430;-75
2023/07/30 11:43:31;;;;;;;1999.90;999.90;;;21.20;99.90;;;;;;5032387;28;20461;-76
2023/07/30 11:46:12;;;;;;;1999.90;999.90;;;20.90;99.90;;;;;;5031856;28;20933;-76
2023/07/30 11:48:39;;;;;;;1999.90;999.90;;;20.80;99.90;;;;;;5032564;28;20820;-75
2023/07/30 11:51:06;;;;;;;1999.90;999.90;;;20.80;99.90;;;;;;5031678;28;20406;-76
2023/07/30 11:53:51;;;;;;;1999.90;999.90;;;20.80;99.90;;;;;;5031895;28;20517;-75
2023/07/30 11:56:25;;;;;;;1999.90;999.90;;;20.90;99.90;;;;;;5031044;28;20867;-75